createdAt,value
2023-10-26T00:00:25.561Z,9.30
2023-10-26T00:02:54.414Z,10.30
2023-10-26T00:05:22.267Z,10.03
2023-10-26T00:07:50.040Z,10.90
2023-10-26T00:10:17.761Z,11.50
2023-10-26T00:12:45.754Z,11.10
2023-10-26T00:15:14.877Z,10.43
2023-10-26T00:17:43.311Z,10.50
2023-10-26T00:20:12.389Z,11.50
2023-10-26T00:22:40.342Z,12.17
2023-10-26T00:25:08.848Z,10.70
2023-10-26T00:27:41.767Z,11.20
2023-10-26T00:30:11.111Z,11.00
2023-10-26T00:32:41.343Z,11.10
2023-10-26T00:35:10.554Z,11.50
2023-10-26T00:37:38.791Z,9.90
2023-10-26T00:40:07.024Z,10.07
2023-10-26T00:42:34.683Z,9.90
2023-10-26T00:45:02.360Z,10.80
2023-10-26T00:47:32.590Z,10.80
2023-10-26T00:50:02.686Z,11.83
2023-10-26T00:52:30.781Z,14.67
2023-10-26T00:54:58.757Z,12.83
2023-10-26T00:57:26.875Z,12.03
2023-10-26T00:59:55.232Z,12.23
2023-10-26T01:02:23.793Z,12.33
2023-10-26T01:04:51.409Z,12.03
2023-10-26T01:07:21.991Z,12.00
2023-10-26T01:09:49.727Z,13.07
2023-10-26T01:12:17.946Z,12.47
2023-10-26T01:14:46.143Z,13.53
2023-10-26T01:17:14.221Z,13.40
2023-10-26T01:19:43.253Z,11.87
2023-10-26T01:22:12.748Z,13.30
2023-10-26T01:24:41.294Z,12.37
2023-10-26T01:27:09.100Z,13.40
2023-10-26T01:29:37.069Z,12.43
2023-10-26T01:32:05.066Z,11.03
2023-10-26T01:34:33.207Z,11.47
2023-10-26T01:37:00.804Z,11.70
2023-10-26T01:39:31.193Z,10.57
2023-10-26T01:41:59.772Z,12.53
2023-10-26T01:44:29.340Z,9.70
2023-10-26T01:46:58.093Z,10.03
2023-10-26T01:49:27.011Z,9.30
2023-10-26T01:51:54.759Z,8.47
2023-10-26T01:54:22.734Z,8.70
2023-10-26T01:56:52.158Z,8.00
2023-10-26T01:59:19.718Z,8.40
2023-10-26T02:01:47.790Z,7.53
2023-10-26T02:04:15.430Z,8.10
2023-10-26T02:06:43.440Z,7.87
2023-10-26T02:09:11.272Z,8.67
2023-10-26T02:11:39.383Z,9.00
2023-10-26T02:14:08.500Z,8.90
2023-10-26T02:16:36.051Z,8.83
2023-10-26T02:19:05.936Z,8.47
2023-10-26T02:21:34.332Z,8.93
2023-10-26T02:24:02.021Z,10.13
2023-10-26T02:26:29.847Z,9.30
2023-10-26T02:28:57.544Z,8.60
2023-10-26T02:31:26.918Z,10.27
2023-10-26T02:33:54.716Z,10.03
2023-10-26T02:36:23.277Z,10.20
2023-10-26T02:38:51.112Z,11.13
2023-10-26T02:41:18.879Z,10.10
2023-10-26T02:43:47.311Z,10.27
2023-10-26T02:46:15.290Z,10.20
2023-10-26T02:48:45.644Z,10.77
2023-10-26T02:51:13.561Z,11.80
2023-10-26T02:53:41.311Z,10.77
2023-10-26T02:56:09.199Z,11.70
2023-10-26T02:58:38.550Z,11.67
2023-10-26T03:01:06.539Z,10.10
2023-10-26T03:03:34.327Z,10.50
2023-10-26T03:06:04.813Z,11.53
2023-10-26T03:08:32.792Z,10.03
2023-10-26T03:11:00.559Z,9.83
2023-10-26T03:13:28.167Z,9.37
2023-10-26T03:15:56.272Z,9.43
2023-10-26T03:18:24.078Z,8.73
2023-10-26T03:20:51.873Z,8.37
2023-10-26T03:23:21.122Z,7.13
2023-10-26T03:25:48.960Z,6.93
2023-10-26T03:28:16.704Z,7.13
2023-10-26T03:30:45.768Z,6.70
2023-10-26T03:33:13.577Z,7.00
2023-10-26T03:35:43.221Z,6.47
2023-10-26T03:38:10.911Z,6.63
2023-10-26T03:40:40.153Z,6.53
2023-10-26T03:43:08.272Z,6.03
2023-10-26T03:45:36.465Z,6.47
2023-10-26T03:48:04.406Z,6.30
2023-10-26T03:50:32.076Z,6.53
2023-10-26T03:52:59.698Z,6.40
2023-10-26T03:55:28.303Z,6.63
2023-10-26T03:57:57.725Z,6.43
2023-10-26T04:00:25.513Z,6.40
2023-10-26T04:02:53.297Z,6.93
2023-10-26T04:05:21.069Z,6.97
2023-10-26T04:07:48.752Z,7.23
2023-10-26T04:10:16.320Z,7.20
2023-10-26T04:12:44.258Z,7.73
2023-10-26T04:15:13.923Z,8.43
2023-10-26T04:17:42.278Z,8.30
2023-10-26T04:20:11.485Z,8.80
2023-10-26T04:22:39.533Z,7.73
2023-10-26T04:25:08.521Z,8.13
2023-10-26T04:27:36.561Z,7.97
2023-10-26T04:30:04.807Z,8.40
2023-10-26T04:32:34.190Z,7.33
2023-10-26T04:35:01.951Z,7.97
2023-10-26T04:37:29.527Z,7.30
2023-10-26T04:39:59.753Z,7.90
2023-10-26T04:42:28.396Z,7.70
2023-10-26T04:44:56.979Z,7.27
2023-10-26T04:47:25.187Z,7.27
2023-10-26T04:49:54.739Z,7.37
2023-10-26T04:52:22.602Z,8.00
2023-10-26T04:54:50.308Z,7.70
2023-10-26T04:57:18.392Z,7.27
2023-10-26T04:59:46.081Z,7.93
2023-10-26T05:02:13.744Z,7.40
2023-10-26T05:04:41.924Z,7.17
2023-10-26T05:07:11.340Z,7.77
2023-10-26T05:09:39.468Z,7.43
2023-10-26T05:12:07.798Z,7.03
2023-10-26T05:14:35.715Z,7.40
2023-10-26T05:17:03.620Z,7.40
2023-10-26T05:19:31.245Z,7.23
2023-10-26T05:22:00.650Z,8.43
2023-10-26T05:24:31.382Z,8.20
2023-10-26T05:26:59.560Z,7.77
2023-10-26T05:29:27.395Z,11.27
2023-10-26T05:31:57.449Z,8.53
2023-10-26T05:34:25.124Z,8.87
2023-10-26T05:36:53.022Z,7.17
2023-10-26T05:39:20.838Z,7.27
2023-10-26T05:41:49.916Z,7.47
2023-10-26T05:44:18.616Z,9.17
2023-10-26T05:46:46.280Z,8.00
2023-10-26T05:49:14.271Z,9.40
2023-10-26T05:51:42.341Z,9.23
2023-10-26T05:54:10.109Z,8.37
2023-10-26T05:56:38.009Z,9.67
2023-10-26T05:59:07.281Z,8.43
2023-10-26T06:01:35.047Z,7.17
2023-10-26T06:04:03.438Z,7.13
2023-10-26T06:06:31.997Z,6.67
2023-10-26T06:09:01.088Z,6.07
2023-10-26T06:11:28.903Z,5.90
2023-10-26T06:13:56.737Z,5.77
2023-10-26T06:16:26.297Z,5.53
2023-10-26T06:18:54.251Z,5.47
2023-10-26T06:21:23.290Z,4.73
2023-10-26T06:23:50.929Z,4.70
2023-10-26T06:26:18.468Z,4.67
2023-10-26T06:28:48.086Z,4.40
2023-10-26T06:31:17.215Z,4.80
2023-10-26T06:33:46.493Z,4.43
2023-10-26T06:36:14.221Z,5.00
2023-10-26T06:38:42.496Z,4.67
2023-10-26T06:41:11.205Z,4.00
2023-10-26T06:43:39.332Z,4.10
2023-10-26T06:46:07.496Z,3.50
2023-10-26T06:48:35.524Z,3.80
2023-10-26T06:51:05.644Z,3.37
2023-10-26T06:53:33.443Z,3.57
2023-10-26T06:56:01.519Z,2.97
2023-10-26T06:58:29.980Z,3.37
2023-10-26T07:00:57.722Z,2.60
2023-10-26T07:03:25.835Z,2.47
2023-10-26T07:05:53.665Z,2.50
2023-10-26T07:08:23.689Z,2.27
2023-10-26T07:10:51.598Z,2.40
2023-10-26T07:13:19.596Z,2.70
2023-10-26T07:15:47.541Z,2.10
2023-10-26T07:18:16.890Z,2.30
2023-10-26T07:20:44.727Z,3.27
2023-10-26T07:23:13.125Z,2.43
2023-10-26T07:25:42.638Z,3.00
2023-10-26T07:28:11.434Z,2.60
2023-10-26T07:30:42.756Z,2.10
2023-10-26T07:33:10.674Z,3.17
2023-10-26T07:35:41.771Z,2.13
2023-10-26T07:38:34.635Z,2.50
2023-10-26T07:40:59.569Z,2.70
2023-10-26T07:43:28.174Z,4.27
2023-10-26T07:45:56.354Z,2.30
2023-10-26T07:48:24.530Z,2.07
2023-10-26T07:50:52.870Z,2.30
2023-10-26T07:53:21.944Z,2.60
2023-10-26T07:55:49.611Z,2.63
2023-10-26T07:58:19.857Z,2.80
2023-10-26T08:00:47.552Z,2.77
2023-10-26T08:03:15.381Z,2.50
2023-10-26T08:05:43.278Z,2.30
2023-10-26T08:08:10.978Z,2.30
2023-10-26T08:10:39.117Z,2.37
2023-10-26T08:13:06.826Z,2.93
2023-10-26T08:16:10.813Z,2.60
2023-10-26T08:18:27.308Z,2.63
2023-10-26T08:20:55.862Z,2.57
2023-10-26T08:23:23.605Z,1.90
2023-10-26T08:25:51.812Z,2.60
2023-10-26T08:28:21.476Z,2.20
2023-10-26T08:30:51.732Z,2.10
2023-10-26T08:33:19.611Z,2.23
2023-10-26T08:35:50.153Z,2.20
2023-10-26T08:38:17.723Z,2.90
2023-10-26T08:40:50.110Z,3.53
2023-10-26T08:43:18.628Z,1.80
2023-10-26T08:45:47.232Z,2.33
2023-10-26T08:48:19.158Z,2.00
2023-10-26T08:50:47.329Z,1.90
2023-10-26T08:53:15.918Z,1.90
2023-10-26T08:55:44.318Z,1.93
2023-10-26T08:58:12.136Z,4.20
2023-10-26T09:00:42.117Z,1.97
2023-10-26T09:03:10.102Z,2.30
2023-10-26T09:05:52.921Z,2.10
2023-10-26T09:08:20.561Z,1.73
2023-10-26T09:10:49.967Z,1.90
2023-10-26T09:13:24.508Z,2.00
2023-10-26T09:15:54.661Z,1.77
2023-10-26T09:18:22.960Z,1.90
2023-10-26T09:21:04.561Z,2.07
2023-10-26T09:23:33.223Z,2.73
2023-10-26T09:26:01.497Z,2.17
2023-10-26T09:28:30.131Z,1.97
2023-10-26T09:31:02.443Z,1.90
2023-10-26T09:33:30.598Z,2.10
2023-10-26T09:36:11.703Z,1.90
2023-10-26T09:38:41.448Z,2.43
2023-10-26T09:41:12.338Z,2.37
2023-10-26T09:43:42.121Z,2.33
2023-10-26T09:46:10.193Z,2.63
2023-10-26T09:48:38.200Z,2.17
2023-10-26T09:51:06.167Z,2.80
2023-10-26T09:53:35.540Z,2.80
2023-10-26T09:56:05.906Z,2.70
2023-10-26T09:58:36.046Z,2.53
2023-10-26T10:01:25.328Z,2.00
2023-10-26T10:03:54.352Z,2.37
2023-10-26T10:06:40.818Z,2.70
2023-10-26T10:09:08.836Z,4.90
2023-10-26T10:11:40.203Z,3.37
2023-10-26T10:14:08.726Z,2.87
2023-10-26T10:16:51.350Z,2.57
2023-10-26T10:19:19.868Z,2.30
2023-10-26T10:21:49.125Z,2.07
2023-10-26T10:24:35.415Z,2.40
2023-10-26T10:27:11.448Z,2.20
2023-10-26T10:29:39.116Z,2.10
2023-10-26T10:32:07.537Z,2.03
2023-10-26T10:34:43.875Z,2.00
2023-10-26T10:37:12.949Z,2.10
2023-10-26T10:39:41.521Z,2.20
2023-10-26T10:42:12.425Z,2.90
2023-10-26T10:44:40.873Z,2.50
2023-10-26T10:47:08.973Z,2.40
2023-10-26T10:49:36.869Z,2.37
2023-10-26T10:52:13.891Z,2.30
2023-10-26T10:54:50.987Z,2.17
2023-10-26T10:57:29.196Z,2.40
2023-10-26T10:59:57.298Z,2.37
2023-10-26T11:02:25.357Z,2.13
2023-10-26T11:05:02.342Z,2.70
2023-10-26T11:07:31.635Z,2.30
2023-10-26T11:09:59.684Z,2.70
2023-10-26T11:12:27.954Z,2.67
2023-10-26T11:14:57.748Z,2.10
2023-10-26T11:17:26.132Z,3.40
2023-10-26T11:19:54.303Z,2.60
2023-10-26T11:22:22.882Z,2.20
2023-10-26T11:24:51.499Z,1.83
2023-10-26T11:27:19.770Z,2.10
2023-10-26T11:29:48.383Z,3.00
2023-10-26T11:32:21.137Z,2.80
2023-10-26T11:35:06.550Z,1.83
2023-10-26T11:37:35.513Z,2.00
2023-10-26T11:40:03.493Z,2.00
2023-10-26T11:42:50.338Z,1.80
2023-10-26T11:45:20.221Z,1.80
2023-10-26T11:47:53.911Z,1.60
2023-10-26T11:50:22.356Z,1.57
2023-10-26T11:52:49.496Z,1.87
2023-10-26T11:55:19.140Z,1.80
2023-10-26T11:57:47.074Z,2.30
2023-10-26T12:00:16.002Z,2.03
2023-10-26T12:02:43.979Z,2.33
2023-10-26T12:05:17.170Z,1.90
2023-10-26T12:07:45.280Z,1.70
2023-10-26T12:10:14.544Z,2.07
2023-10-26T12:12:42.365Z,2.03
2023-10-26T12:15:10.473Z,2.00
2023-10-26T12:17:38.243Z,1.70
2023-10-26T12:20:06.949Z,1.70
2023-10-26T12:22:36.585Z,2.00
2023-10-26T12:25:05.773Z,2.00
2023-10-26T12:28:19.971Z,2.20
2023-10-26T12:30:21.384Z,2.33
2023-10-26T12:32:49.397Z,2.07
2023-10-26T12:35:17.088Z,2.40
2023-10-26T12:37:46.382Z,2.60
2023-10-26T12:40:14.020Z,2.70
2023-10-26T12:42:42.857Z,2.37
2023-10-26T12:45:10.957Z,2.20
2023-10-26T12:47:38.982Z,2.30
2023-10-26T12:50:08.154Z,2.50
2023-10-26T12:52:37.669Z,2.60
2023-10-26T12:55:08.366Z,2.43
2023-10-26T12:57:36.076Z,2.30
2023-10-26T13:00:04.787Z,2.37
2023-10-26T13:02:32.614Z,2.50
2023-10-26T13:05:00.326Z,2.73
2023-10-26T13:07:28.444Z,8.33
2023-10-26T13:09:56.203Z,7.23
2023-10-26T13:12:25.562Z,8.17
2023-10-26T13:14:56.874Z,6.37
2023-10-26T13:17:30.440Z,5.47
2023-10-26T13:19:58.067Z,5.33
2023-10-26T13:22:26.763Z,6.50
2023-10-26T13:24:54.611Z,3.90
2023-10-26T13:27:22.507Z,3.03
2023-10-26T13:29:52.211Z,3.50
2023-10-26T13:32:20.112Z,2.70
2023-10-26T13:34:48.354Z,3.37
2023-10-26T13:37:16.348Z,2.63
2023-10-26T13:39:44.161Z,2.60
2023-10-26T13:42:11.989Z,2.40
2023-10-26T13:44:39.654Z,2.70
2023-10-26T13:47:09.215Z,2.83
2023-10-26T13:49:37.370Z,3.37
2023-10-26T13:52:05.833Z,2.97
2023-10-26T13:54:33.847Z,2.80
2023-10-26T13:57:01.663Z,2.77
2023-10-26T13:59:30.497Z,2.70
2023-10-26T14:01:58.176Z,2.70
2023-10-26T14:04:27.582Z,2.67
2023-10-26T14:06:56.540Z,2.30
2023-10-26T14:09:24.157Z,2.50
2023-10-26T14:11:51.912Z,2.87
2023-10-26T14:14:20.251Z,2.30
2023-10-26T14:16:48.540Z,3.13
2023-10-26T14:19:16.776Z,2.80
2023-10-26T14:21:45.958Z,2.70
2023-10-26T14:24:14.151Z,2.90
2023-10-26T14:26:41.726Z,3.10
2023-10-26T14:29:09.807Z,3.83
2023-10-26T14:31:38.610Z,2.97
2023-10-26T14:34:06.674Z,3.03
2023-10-26T14:36:35.340Z,3.00
2023-10-26T14:39:05.597Z,3.07
2023-10-26T14:41:33.227Z,3.43
2023-10-26T14:44:01.268Z,3.43
2023-10-26T14:46:33.117Z,4.00
2023-10-26T14:49:01.404Z,4.63
2023-10-26T14:51:29.230Z,4.77
2023-10-26T14:53:56.886Z,4.40
2023-10-26T14:56:26.266Z,4.00
2023-10-26T14:58:55.896Z,3.93
2023-10-26T15:01:23.589Z,6.57
2023-10-26T15:03:51.312Z,18.07
2023-10-26T15:06:19.379Z,7.37
2023-10-26T15:08:47.478Z,7.13
2023-10-26T15:11:23.979Z,6.50
2023-10-26T15:13:54.696Z,6.77
2023-10-26T15:16:22.425Z,6.67
2023-10-26T15:18:51.061Z,6.80
2023-10-26T15:21:18.664Z,6.93
2023-10-26T15:23:46.529Z,6.53
2023-10-26T15:26:14.540Z,7.83
2023-10-26T15:28:42.150Z,8.13
2023-10-26T15:31:12.399Z,8.30
2023-10-26T15:33:40.327Z,7.57
2023-10-26T15:36:08.773Z,7.67
2023-10-26T15:38:42.226Z,8.00
2023-10-26T15:41:10.313Z,7.50
2023-10-26T15:43:37.981Z,8.20
2023-10-26T15:46:05.676Z,6.50
2023-10-26T15:49:31.318Z,7.87
2023-10-26T15:51:23.053Z,7.57
2023-10-26T15:53:50.742Z,7.60
2023-10-26T15:56:18.329Z,7.20
2023-10-26T15:58:47.694Z,7.53
2023-10-26T16:01:16.060Z,8.00
2023-10-26T16:03:46.058Z,7.53
2023-10-26T16:06:15.604Z,7.73
2023-10-26T16:08:43.511Z,8.63
2023-10-26T16:11:13.306Z,7.97
2023-10-26T16:13:41.331Z,7.97
2023-10-26T16:16:09.162Z,7.97
2023-10-26T16:18:37.249Z,7.43
2023-10-26T16:21:07.119Z,7.20
2023-10-26T16:23:36.123Z,8.03
2023-10-26T16:26:05.405Z,7.87
2023-10-26T16:28:33.098Z,7.53
2023-10-26T16:31:01.212Z,7.60
2023-10-26T16:33:29.454Z,8.80
2023-10-26T16:35:57.932Z,9.23
2023-10-26T16:38:27.505Z,9.07
2023-10-26T16:40:55.124Z,7.73
2023-10-26T16:43:23.179Z,9.23
2023-10-26T16:45:51.113Z,7.77
2023-10-26T16:48:21.455Z,9.00
2023-10-26T16:50:49.266Z,8.53
2023-10-26T16:53:30.635Z,8.63
2023-10-26T16:56:02.141Z,9.30
2023-10-26T16:58:30.220Z,8.80
2023-10-26T17:00:59.635Z,8.13
2023-10-26T17:03:27.742Z,8.97
2023-10-26T17:05:56.416Z,9.00
2023-10-26T17:08:24.169Z,8.87
2023-10-26T17:10:52.161Z,9.87
2023-10-26T17:13:22.411Z,10.97
2023-10-26T17:15:52.772Z,9.77
2023-10-26T17:18:20.862Z,8.23
2023-10-26T17:20:48.733Z,9.20
2023-10-26T17:23:16.858Z,9.23
2023-10-26T17:25:44.886Z,9.67
2023-10-26T17:28:12.799Z,9.47
2023-10-26T17:30:42.363Z,9.07
2023-10-26T17:33:14.527Z,10.33
2023-10-26T17:35:48.576Z,11.70
2023-10-26T17:38:16.634Z,10.07
2023-10-26T17:40:46.510Z,9.70
2023-10-26T17:43:14.660Z,9.70
2023-10-26T17:45:44.958Z,10.43
2023-10-26T17:48:12.999Z,11.20
2023-10-26T17:50:42.493Z,11.33
2023-10-26T17:53:11.481Z,10.33
2023-10-26T17:55:39.093Z,10.60
2023-10-26T17:58:07.698Z,11.53
2023-10-26T18:00:35.328Z,11.27
2023-10-26T18:03:04.939Z,11.00
2023-10-26T18:05:32.626Z,11.33
2023-10-26T18:08:00.652Z,10.83
2023-10-26T18:10:28.608Z,11.00
2023-10-26T18:12:56.734Z,10.60
2023-10-26T18:15:24.371Z,10.97
2023-10-26T18:17:52.166Z,11.87
2023-10-26T18:20:22.155Z,11.47
2023-10-26T18:22:49.957Z,14.03
2023-10-26T18:25:17.661Z,16.27
2023-10-26T18:27:45.388Z,12.27
2023-10-26T18:30:14.455Z,12.10
2023-10-26T18:32:42.552Z,12.50
2023-10-26T18:35:11.028Z,14.47
2023-10-26T18:37:40.484Z,14.60
2023-10-26T18:40:09.185Z,14.23
2023-10-26T18:42:36.981Z,13.83
2023-10-26T18:45:04.882Z,13.60
2023-10-26T18:47:32.703Z,18.67
2023-10-26T18:50:00.429Z,21.27
2023-10-26T18:52:28.147Z,17.73
2023-10-26T18:54:57.280Z,20.47
2023-10-26T18:57:25.726Z,16.00
2023-10-26T18:59:53.671Z,25.10
2023-10-26T19:02:23.082Z,14.03
2023-10-26T19:04:50.889Z,22.07
2023-10-26T19:07:18.693Z,15.30
2023-10-26T19:09:46.643Z,14.60
2023-10-26T19:12:16.152Z,20.57
2023-10-26T19:14:43.914Z,15.90
2023-10-26T19:17:13.124Z,15.87
2023-10-26T19:19:40.949Z,14.57
2023-10-26T19:22:08.882Z,16.10
2023-10-26T19:24:36.971Z,32.47
2023-10-26T19:27:04.801Z,20.07
2023-10-26T19:29:34.005Z,37.53
2023-10-26T19:32:01.883Z,41.83
2023-10-26T19:34:30.080Z,12.80
2023-10-26T19:36:57.918Z,58.33
2023-10-26T19:39:25.774Z,47.53
2023-10-26T19:41:53.829Z,20.93
2023-10-26T19:44:21.562Z,14.77
2023-10-26T19:46:51.079Z,19.33
2023-10-26T19:49:18.860Z,16.60
2023-10-26T19:51:46.582Z,20.87
2023-10-26T19:54:14.906Z,17.27
2023-10-26T19:56:42.716Z,9.87
2023-10-26T19:59:10.784Z,13.97
2023-10-26T20:01:38.701Z,18.47
2023-10-26T20:04:09.072Z,21.07
2023-10-26T20:06:37.110Z,19.03
2023-10-26T20:09:06.381Z,22.07
2023-10-26T20:11:34.265Z,14.03
2023-10-26T20:14:03.983Z,19.50
2023-10-26T20:16:31.699Z,20.87
2023-10-26T20:19:00.902Z,24.27
2023-10-26T20:21:30.782Z,34.20
2023-10-26T20:23:58.653Z,11.80
2023-10-26T20:26:26.399Z,29.23
2023-10-26T20:28:54.149Z,17.50
2023-10-26T20:31:22.921Z,12.60
2023-10-26T20:33:50.635Z,13.93
2023-10-26T20:36:18.699Z,10.20
2023-10-26T20:38:48.676Z,13.07
2023-10-26T20:41:16.630Z,41.80
2023-10-26T20:43:44.541Z,29.10
2023-10-26T20:46:12.748Z,23.07
2023-10-26T20:48:43.356Z,32.93
2023-10-26T20:51:11.903Z,11.70
2023-10-26T20:53:40.068Z,13.63
2023-10-26T20:56:11.343Z,21.00
2023-10-26T20:58:39.049Z,26.00
2023-10-26T21:01:10.611Z,20.13
2023-10-26T21:03:38.397Z,18.13
2023-10-26T21:06:08.036Z,18.37
2023-10-26T21:08:35.981Z,16.87
2023-10-26T21:11:05.090Z,17.10
2023-10-26T21:13:34.588Z,11.67
2023-10-26T21:16:02.603Z,9.90
2023-10-26T21:18:30.424Z,19.23
2023-10-26T21:20:58.458Z,25.53
2023-10-26T21:23:27.019Z,9.57
2023-10-26T21:25:54.840Z,11.07
2023-10-26T21:28:24.874Z,8.77
2023-10-26T21:30:55.834Z,8.90
2023-10-26T21:33:23.738Z,9.43
2023-10-26T21:35:51.467Z,14.40
2023-10-26T21:38:19.108Z,10.17
2023-10-26T21:40:48.088Z,9.50
2023-10-26T21:43:16.006Z,9.90
2023-10-26T21:45:45.229Z,13.50
2023-10-26T21:48:15.282Z,9.33
2023-10-26T21:50:43.122Z,9.60
2023-10-26T21:53:13.671Z,8.93
2023-10-26T21:55:42.658Z,10.33
2023-10-26T21:58:11.457Z,9.27
2023-10-26T22:00:39.281Z,8.47
2023-10-26T22:03:08.889Z,9.30
2023-10-26T22:05:38.981Z,10.97
2023-10-26T22:08:06.530Z,11.13
2023-10-26T22:10:34.469Z,14.20
2023-10-26T22:13:02.207Z,13.73
2023-10-26T22:15:30.539Z,9.13
2023-10-26T22:17:58.461Z,10.90
2023-10-26T22:20:26.574Z,7.73
2023-10-26T22:22:56.003Z,8.27
2023-10-26T22:25:23.959Z,14.13
2023-10-26T22:27:52.065Z,11.87
2023-10-26T22:30:19.940Z,8.30
2023-10-26T22:32:48.119Z,9.57
2023-10-26T22:35:16.668Z,9.13
2023-10-26T22:37:44.671Z,11.73
2023-10-26T22:40:16.770Z,10.77
2023-10-26T22:42:44.696Z,10.97
2023-10-26T22:45:14.265Z,10.93
2023-10-26T22:47:41.955Z,10.37
2023-10-26T22:50:10.135Z,11.20
2023-10-26T22:52:37.889Z,13.37
2023-10-26T22:55:05.990Z,9.93
2023-10-26T22:57:35.363Z,11.93
2023-10-26T23:00:04.371Z,10.83
2023-10-26T23:02:32.048Z,8.67
2023-10-26T23:05:02.670Z,13.87
2023-10-26T23:07:30.857Z,12.73
2023-10-26T23:09:58.636Z,12.17
2023-10-26T23:12:26.529Z,15.23
2023-10-26T23:14:55.932Z,10.57
2023-10-26T23:17:23.809Z,12.33
2023-10-26T23:19:52.677Z,18.40
2023-10-26T23:22:20.444Z,14.13
2023-10-26T23:24:48.550Z,11.00
2023-10-26T23:27:16.243Z,13.47
2023-10-26T23:29:44.035Z,12.77
2023-10-26T23:32:14.005Z,10.97
2023-10-26T23:34:42.033Z,10.87
2023-10-26T23:37:10.099Z,17.87
2023-10-26T23:39:38.165Z,8.80
2023-10-26T23:42:06.295Z,13.03
2023-10-26T23:44:35.161Z,14.07
2023-10-26T23:47:03.260Z,10.73
2023-10-26T23:49:33.319Z,10.60
2023-10-26T23:52:01.108Z,11.87
2023-10-26T23:54:28.789Z,9.63
2023-10-26T23:56:56.727Z,9.47
2023-10-26T23:59:24.809Z,9.17
